메인 페이지
METAR-TAF:

METAR-TAF

공항 :

가야, 인도

위도: 24-44-40N, 경도: 84-57-04E, 고도: 116m

현재 날씨관측

예보는 30분 전, 05:00시(UTC)에 발표되었습니다.
6kt
온도 34°C
습도 53%
기압 1004 hPa
시정: 4500m
연무,

METAR: VEGY 220500Z 08006KT 4500 HZ NSC 34/23 Q1004 NOSIG

시각: 11:00 (05:30 UTC)

예보

예보는 3 시간 30분 전, 02:00시(UTC)에 발표되었습니다.
예보 대상 시간: 22일 03시부터 22일 12시까지 (UTC)
8kt
시정: 3500m
고도 10000ft 상공 구름 조금
박무, 연무
전환 중
22일 04시부터 22일 06시까지 (UTC)
12kt
시정: 5000m
고도 1800ft 상공 구름 보통
고도 10000ft 상공 구름 많음
약한비, 연무,

TAF: VEGY 220200Z 2203/2212 09008KT 3500 BR HZ FEW100 BECMG 2204/2206 09012KT 5000 -RA HZ SCT018 BKN100

4,000개 이상의 공항 관측 자료 및 예보 (METAR 및 TAF 보고).

지도상에서 검색 가능한 기상관측소가 노란 점과 빨간 점으로 표시되어 있습니다.

기상관측소 명을 보려면 표시 위로 마우스를 이동하세요.

날씨 관측과 예보를 보려면 클릭하세요.

지도 변경 : 확대하려면 엑스 표시가 있는 녹색 버튼, 축소하려면 빼기 표시가 있는 녹색 버튼, 다음 페이지의 지도를 보려면 녹색 화살표를 클릭하세요.


METAR-TAF: